TOM888 ESNU-LOWS
Flight info
| Callsign | TOM888 |
|---|---|
| Flight time | 2h 25m |
| Altitude | 36000 |
| Route | DEDIT DCT SIPRI DCT NUGPU M607 INGIS DCT KAL DCT TILAV L87 PESEL DCT POGAB Z36 PIKIB DCT BIBAG T700 BADIT |
| Aircraft | B738/M-SDE2E3FGHIRWXY/LB1 |
Departure
| Time | 2026-05-07 14:48 |
|---|---|
| Airport | Umeå Airport (ESNU) |
Arrival
| Time | 2026-05-07 17:13 |
|---|---|
| Airport | Salzburg Airport (LOWS) |
| Time | Latitude | Longitude | Altitude | Speed | Heading |
|---|---|---|---|---|---|
| 2026-05-07 14:24 | 63.79307 | 20.28790 | 26 ft | 0 kts | 48° |
| 2026-05-07 14:40 | 63.79306 | 20.28787 | 26 ft | 2 kts | 48° |
| 2026-05-07 14:41 | 63.79289 | 20.28745 | 26 ft | 2 kts | 48° |
| 2026-05-07 14:41 | 63.79278 | 20.28707 | 30 ft | 4 kts | 107° |
| 2026-05-07 14:41 | 63.79294 | 20.28670 | 30 ft | 4 kts | 150° |
| 2026-05-07 14:41 | 63.79313 | 20.28644 | 30 ft | 1 kts | 143° |
| 2026-05-07 14:44 | 63.79302 | 20.28662 | 29 ft | 4 kts | 144° |
| 2026-05-07 14:44 | 63.79258 | 20.28662 | 26 ft | 9 kts | 221° |
| 2026-05-07 14:45 | 63.79201 | 20.28521 | 27 ft | 15 kts | 229° |
| 2026-05-07 14:45 | 63.79176 | 20.28302 | 27 ft | 17 kts | 309° |
| 2026-05-07 14:45 | 63.79280 | 20.28086 | 29 ft | 27 kts | 318° |
| 2026-05-07 14:45 | 63.79458 | 20.27729 | 30 ft | 41 kts | 318° |
| 2026-05-07 14:46 | 63.79672 | 20.27300 | 31 ft | 40 kts | 319° |
| 2026-05-07 14:46 | 63.79829 | 20.27032 | 32 ft | 10 kts | 347° |
| 2026-05-07 14:46 | 63.79844 | 20.26969 | 32 ft | 5 kts | 221° |
| 2026-05-07 14:46 | 63.79814 | 20.27013 | 32 ft | 6 kts | 137° |
| 2026-05-07 14:47 | 63.79787 | 20.27069 | 32 ft | 9 kts | 138° |
| 2026-05-07 14:47 | 63.79544 | 20.27555 | 30 ft | 88 kts | 138° |
| 2026-05-07 14:47 | 63.78898 | 20.28847 | 31 ft | 158 kts | 139° |
| 2026-05-07 14:47 | 63.78000 | 20.30668 | 540 ft | 176 kts | 140° |
| 2026-05-07 14:48 | 63.77084 | 20.32514 | 1538 ft | 180 kts | 141° |
| 2026-05-07 14:48 | 63.76096 | 20.34460 | 2192 ft | 202 kts | 141° |
| 2026-05-07 14:48 | 63.74958 | 20.36698 | 2461 ft | 231 kts | 140° |
| 2026-05-07 14:48 | 63.73701 | 20.39195 | 2734 ft | 256 kts | 140° |
| 2026-05-07 14:49 | 63.72332 | 20.41929 | 3381 ft | 268 kts | 139° |
| 2026-05-07 14:49 | 63.70910 | 20.44645 | 4349 ft | 269 kts | 148° |
| 2026-05-07 14:49 | 63.69132 | 20.45868 | 5171 ft | 271 kts | 181° |
| 2026-05-07 14:49 | 63.67243 | 20.45789 | 6077 ft | 274 kts | 184° |
| 2026-05-07 14:50 | 63.65319 | 20.45720 | 6937 ft | 278 kts | 183° |
| 2026-05-07 14:50 | 63.63374 | 20.45677 | 7805 ft | 281 kts | 183° |
| 2026-05-07 14:50 | 63.61409 | 20.45635 | 8685 ft | 284 kts | 183° |
| 2026-05-07 14:50 | 63.59452 | 20.45600 | 9570 ft | 286 kts | 183° |
| 2026-05-07 14:51 | 63.57445 | 20.45565 | 10371 ft | 292 kts | 183° |
| 2026-05-07 14:51 | 63.55341 | 20.45526 | 10678 ft | 315 kts | 183° |
| 2026-05-07 14:51 | 63.53069 | 20.45484 | 10892 ft | 339 kts | 182° |
| 2026-05-07 14:51 | 63.50636 | 20.45443 | 11129 ft | 359 kts | 182° |
| 2026-05-07 14:52 | 63.48098 | 20.45407 | 11723 ft | 368 kts | 182° |
| 2026-05-07 14:52 | 63.45525 | 20.45375 | 12495 ft | 371 kts | 182° |
| 2026-05-07 14:52 | 63.42929 | 20.45342 | 13303 ft | 374 kts | 182° |
| 2026-05-07 14:52 | 63.40349 | 20.45307 | 14043 ft | 378 kts | 182° |
| 2026-05-07 14:53 | 63.37705 | 20.45270 | 14728 ft | 381 kts | 182° |
| 2026-05-07 14:53 | 63.35041 | 20.45232 | 15439 ft | 384 kts | 182° |
| 2026-05-07 14:53 | 63.32357 | 20.45193 | 16141 ft | 387 kts | 182° |
| 2026-05-07 14:53 | 63.29651 | 20.45154 | 16829 ft | 390 kts | 182° |
| 2026-05-07 14:54 | 63.26925 | 20.45110 | 17503 ft | 394 kts | 184° |
| 2026-05-07 14:54 | 63.24225 | 20.44258 | 18137 ft | 393 kts | 200° |
| 2026-05-07 14:54 | 63.21646 | 20.42244 | 18790 ft | 394 kts | 202° |
| 2026-05-07 14:54 | 63.19060 | 20.40172 | 19375 ft | 397 kts | 202° |
| 2026-05-07 14:55 | 63.16487 | 20.38128 | 19943 ft | 400 kts | 202° |
| 2026-05-07 14:55 | 63.13857 | 20.36068 | 20530 ft | 402 kts | 202° |
| 2026-05-07 14:55 | 63.11208 | 20.34019 | 21100 ft | 405 kts | 202° |
| 2026-05-07 14:55 | 63.08536 | 20.31973 | 21658 ft | 408 kts | 203° |
| 2026-05-07 14:56 | 63.05845 | 20.29928 | 22201 ft | 411 kts | 203° |
| 2026-05-07 14:56 | 63.03132 | 20.27877 | 22729 ft | 414 kts | 203° |
| 2026-05-07 14:56 | 63.00400 | 20.25819 | 23250 ft | 416 kts | 203° |
| 2026-05-07 14:56 | 62.97650 | 20.23751 | 23742 ft | 419 kts | 203° |
| 2026-05-07 14:57 | 62.94881 | 20.21676 | 24144 ft | 422 kts | 203° |
| 2026-05-07 14:57 | 62.92135 | 20.19622 | 24536 ft | 424 kts | 203° |
| 2026-05-07 14:57 | 62.89334 | 20.17531 | 24909 ft | 426 kts | 204° |
| 2026-05-07 14:57 | 62.86523 | 20.15438 | 25334 ft | 427 kts | 204° |
| 2026-05-07 14:58 | 62.83699 | 20.13337 | 25704 ft | 430 kts | 204° |
| 2026-05-07 14:58 | 62.80856 | 20.11226 | 26053 ft | 433 kts | 204° |
| 2026-05-07 14:58 | 62.77996 | 20.09106 | 26407 ft | 435 kts | 204° |
| 2026-05-07 14:58 | 62.75123 | 20.06982 | 26763 ft | 437 kts | 204° |
| 2026-05-07 14:59 | 62.72231 | 20.04848 | 27109 ft | 440 kts | 204° |
| 2026-05-07 14:59 | 62.69363 | 20.02737 | 27436 ft | 442 kts | 204° |
| 2026-05-07 14:59 | 62.66441 | 20.00590 | 27765 ft | 444 kts | 204° |
| 2026-05-07 14:59 | 62.63504 | 19.98436 | 28086 ft | 447 kts | 204° |
| 2026-05-07 15:00 | 62.60555 | 19.96279 | 28364 ft | 448 kts | 204° |
| 2026-05-07 15:00 | 62.57602 | 19.94126 | 28828 ft | 447 kts | 204° |
| 2026-05-07 15:00 | 62.54663 | 19.91988 | 29366 ft | 444 kts | 204° |
| 2026-05-07 15:00 | 62.51737 | 19.89865 | 29848 ft | 443 kts | 204° |
| 2026-05-07 15:01 | 62.48817 | 19.87747 | 30244 ft | 443 kts | 204° |
| 2026-05-07 15:01 | 62.45894 | 19.85629 | 30543 ft | 443 kts | 204° |
| 2026-05-07 15:01 | 62.42969 | 19.83514 | 30850 ft | 443 kts | 204° |
| 2026-05-07 15:01 | 62.40085 | 19.81433 | 31174 ft | 443 kts | 204° |
| 2026-05-07 15:02 | 62.37160 | 19.79328 | 31498 ft | 443 kts | 204° |
| 2026-05-07 15:02 | 62.34234 | 19.77226 | 31791 ft | 443 kts | 204° |
| 2026-05-07 15:02 | 62.30760 | 19.74737 | 32111 ft | 444 kts | 205° |
| 2026-05-07 15:03 | 62.28821 | 19.73350 | 32311 ft | 444 kts | 204° |
| 2026-05-07 15:03 | 62.24903 | 19.70553 | 32721 ft | 444 kts | 204° |
| 2026-05-07 15:03 | 62.22960 | 19.69170 | 32927 ft | 444 kts | 204° |
| 2026-05-07 15:03 | 62.19081 | 19.66413 | 33317 ft | 444 kts | 204° |
| 2026-05-07 15:04 | 62.16149 | 19.64333 | 33607 ft | 444 kts | 204° |
| 2026-05-07 15:04 | 62.13217 | 19.62258 | 33907 ft | 444 kts | 204° |
| 2026-05-07 15:04 | 62.10285 | 19.60187 | 34187 ft | 444 kts | 204° |
| 2026-05-07 15:04 | 62.07357 | 19.58124 | 34426 ft | 443 kts | 204° |
| 2026-05-07 15:05 | 62.04428 | 19.56065 | 34643 ft | 443 kts | 204° |
| 2026-05-07 15:05 | 62.02492 | 19.54706 | 34813 ft | 442 kts | 204° |
| 2026-05-07 15:05 | 61.99568 | 19.52657 | 35040 ft | 442 kts | 204° |
| 2026-05-07 15:05 | 61.96644 | 19.50611 | 35274 ft | 442 kts | 204° |
| 2026-05-07 15:06 | 61.93724 | 19.48572 | 35523 ft | 441 kts | 204° |
| 2026-05-07 15:06 | 61.89866 | 19.45885 | 35846 ft | 440 kts | 204° |
| 2026-05-07 15:06 | 61.86954 | 19.43861 | 36066 ft | 440 kts | 204° |
| 2026-05-07 15:06 | 61.84982 | 19.42492 | 36115 ft | 442 kts | 204° |
| 2026-05-07 15:07 | 61.79150 | 19.38452 | 36115 ft | 444 kts | 204° |
| 2026-05-07 15:07 | 61.73299 | 19.34426 | 36094 ft | 439 kts | 204° |
| 2026-05-07 15:08 | 61.67507 | 19.30453 | 36113 ft | 437 kts | 204° |
| 2026-05-07 15:08 | 61.61726 | 19.26499 | 36125 ft | 437 kts | 204° |
| 2026-05-07 15:09 | 61.55943 | 19.22558 | 36123 ft | 437 kts | 204° |
| 2026-05-07 15:09 | 61.50155 | 19.18631 | 36124 ft | 437 kts | 204° |
| 2026-05-07 15:10 | 61.44401 | 19.14742 | 36117 ft | 437 kts | 204° |
| 2026-05-07 15:10 | 61.38600 | 19.10837 | 36118 ft | 438 kts | 204° |
| 2026-05-07 15:11 | 61.32786 | 19.06938 | 36128 ft | 439 kts | 204° |
| 2026-05-07 15:11 | 61.26958 | 19.03046 | 36125 ft | 441 kts | 204° |
| 2026-05-07 15:12 | 61.21152 | 18.99183 | 36122 ft | 441 kts | 204° |
| 2026-05-07 15:12 | 61.15301 | 18.95307 | 36120 ft | 441 kts | 204° |
| 2026-05-07 15:13 | 61.09453 | 18.91447 | 36120 ft | 441 kts | 204° |
| 2026-05-07 15:13 | 61.03597 | 18.87595 | 36123 ft | 442 kts | 204° |
| 2026-05-07 15:14 | 60.97774 | 18.83780 | 36123 ft | 442 kts | 204° |
| 2026-05-07 15:14 | 60.91913 | 18.79955 | 36120 ft | 442 kts | 204° |
| 2026-05-07 15:15 | 60.86057 | 18.76148 | 36113 ft | 441 kts | 204° |
| 2026-05-07 15:15 | 60.80214 | 18.72349 | 36119 ft | 440 kts | 204° |
| 2026-05-07 15:16 | 60.74426 | 18.68575 | 36122 ft | 439 kts | 204° |
| 2026-05-07 15:16 | 60.68604 | 18.64789 | 36119 ft | 439 kts | 204° |
| 2026-05-07 15:17 | 60.64524 | 18.62146 | 36117 ft | 439 kts | 204° |
| 2026-05-07 15:17 | 60.58709 | 18.58393 | 36110 ft | 437 kts | 204° |
| 2026-05-07 15:18 | 60.52946 | 18.54688 | 36117 ft | 437 kts | 204° |
| 2026-05-07 15:18 | 60.48296 | 18.51708 | 36122 ft | 438 kts | 204° |
| 2026-05-07 15:19 | 60.44813 | 18.49481 | 36119 ft | 438 kts | 204° |
| 2026-05-07 15:19 | 60.38991 | 18.45771 | 36115 ft | 439 kts | 204° |
| 2026-05-07 15:20 | 60.33202 | 18.42096 | 36099 ft | 439 kts | 204° |
| 2026-05-07 15:20 | 60.27367 | 18.38406 | 36109 ft | 440 kts | 203° |
| 2026-05-07 15:21 | 60.21522 | 18.34724 | 36109 ft | 440 kts | 203° |
| 2026-05-07 15:21 | 60.15672 | 18.31052 | 36106 ft | 441 kts | 203° |
| 2026-05-07 15:22 | 60.09819 | 18.27392 | 36105 ft | 441 kts | 203° |
| 2026-05-07 15:22 | 60.04006 | 18.23771 | 36096 ft | 440 kts | 203° |
| 2026-05-07 15:23 | 59.98159 | 18.20141 | 36090 ft | 440 kts | 203° |
| 2026-05-07 15:23 | 59.92315 | 18.16528 | 36092 ft | 440 kts | 203° |
| 2026-05-07 15:24 | 59.86511 | 18.12951 | 36094 ft | 439 kts | 203° |
| 2026-05-07 15:24 | 59.80671 | 18.09366 | 36086 ft | 439 kts | 203° |
| 2026-05-07 15:25 | 59.74838 | 18.05798 | 36075 ft | 438 kts | 203° |
| 2026-05-07 15:25 | 59.69007 | 18.02244 | 36075 ft | 438 kts | 203° |
| 2026-05-07 15:26 | 59.63176 | 17.98703 | 36077 ft | 439 kts | 203° |
| 2026-05-07 15:26 | 59.57337 | 17.95170 | 36078 ft | 439 kts | 203° |
| 2026-05-07 15:27 | 59.51524 | 17.91666 | 36038 ft | 440 kts | 202° |
| 2026-05-07 15:27 | 59.45667 | 17.88148 | 36092 ft | 440 kts | 202° |
| 2026-05-07 15:28 | 59.39806 | 17.84640 | 36103 ft | 440 kts | 202° |
| 2026-05-07 15:28 | 59.33938 | 17.81140 | 36098 ft | 441 kts | 202° |
| 2026-05-07 15:29 | 59.28097 | 17.77669 | 36090 ft | 442 kts | 202° |
| 2026-05-07 15:29 | 59.22210 | 17.74185 | 36082 ft | 442 kts | 202° |
| 2026-05-07 15:30 | 59.16322 | 17.70711 | 36097 ft | 442 kts | 202° |
| 2026-05-07 15:30 | 59.10427 | 17.67246 | 36105 ft | 442 kts | 202° |
| 2026-05-07 15:31 | 59.04572 | 17.63817 | 36107 ft | 442 kts | 202° |
| 2026-05-07 15:31 | 58.98676 | 17.60376 | 36104 ft | 442 kts | 202° |
| 2026-05-07 15:32 | 58.92787 | 17.56951 | 36104 ft | 441 kts | 202° |
| 2026-05-07 15:32 | 58.86904 | 17.53540 | 36107 ft | 441 kts | 201° |
| 2026-05-07 15:33 | 58.81022 | 17.50142 | 36108 ft | 441 kts | 201° |
| 2026-05-07 15:33 | 58.75010 | 17.47836 | 36108 ft | 450 kts | 188° |
| 2026-05-07 15:34 | 58.68744 | 17.47329 | 36080 ft | 451 kts | 187° |
| 2026-05-07 15:34 | 58.62499 | 17.46635 | 36100 ft | 448 kts | 191° |
| 2026-05-07 15:35 | 58.56549 | 17.43771 | 36121 ft | 439 kts | 204° |
| 2026-05-07 15:35 | 58.50777 | 17.39931 | 36110 ft | 439 kts | 204° |
| 2026-05-07 15:36 | 58.45033 | 17.36160 | 36111 ft | 440 kts | 203° |
| 2026-05-07 15:36 | 58.39231 | 17.32415 | 36103 ft | 440 kts | 202° |
| 2026-05-07 15:37 | 58.33422 | 17.28702 | 36109 ft | 441 kts | 202° |
| 2026-05-07 15:37 | 58.27606 | 17.25001 | 36109 ft | 441 kts | 202° |
| 2026-05-07 15:38 | 58.21816 | 17.21327 | 36110 ft | 442 kts | 202° |
| 2026-05-07 15:38 | 58.15982 | 17.17638 | 36107 ft | 442 kts | 202° |
| 2026-05-07 15:39 | 58.10142 | 17.13957 | 36103 ft | 442 kts | 202° |
| 2026-05-07 15:39 | 58.04295 | 17.10286 | 36113 ft | 443 kts | 202° |
| 2026-05-07 15:40 | 57.98442 | 17.06622 | 36112 ft | 443 kts | 202° |
| 2026-05-07 15:40 | 57.92623 | 17.02992 | 36113 ft | 444 kts | 202° |
| 2026-05-07 15:41 | 57.86756 | 16.99345 | 36094 ft | 444 kts | 201° |
| 2026-05-07 15:41 | 57.80889 | 16.95711 | 36113 ft | 444 kts | 201° |
| 2026-05-07 15:42 | 57.75021 | 16.92088 | 36107 ft | 444 kts | 201° |
| 2026-05-07 15:42 | 57.69185 | 16.88498 | 36106 ft | 444 kts | 201° |
| 2026-05-07 15:43 | 57.63309 | 16.84894 | 36110 ft | 444 kts | 201° |
| 2026-05-07 15:43 | 57.57434 | 16.81304 | 36109 ft | 444 kts | 201° |
| 2026-05-07 15:44 | 57.51555 | 16.77724 | 36103 ft | 444 kts | 201° |
| 2026-05-07 15:44 | 57.45718 | 16.74181 | 36113 ft | 444 kts | 201° |
| 2026-05-07 15:45 | 57.39844 | 16.70628 | 36107 ft | 444 kts | 201° |
| 2026-05-07 15:45 | 57.33970 | 16.67086 | 36093 ft | 444 kts | 201° |
| 2026-05-07 15:46 | 57.25165 | 16.61801 | 36105 ft | 443 kts | 201° |
| 2026-05-07 15:47 | 57.19298 | 16.58293 | 36097 ft | 443 kts | 201° |
| 2026-05-07 15:47 | 57.13469 | 16.54820 | 36103 ft | 443 kts | 201° |
| 2026-05-07 15:48 | 57.07600 | 16.51334 | 36089 ft | 443 kts | 200° |
| 2026-05-07 15:48 | 57.01734 | 16.47862 | 36098 ft | 443 kts | 200° |
| 2026-05-07 15:49 | 56.95864 | 16.44399 | 36103 ft | 443 kts | 200° |
| 2026-05-07 15:49 | 56.90033 | 16.40969 | 36104 ft | 443 kts | 200° |
| 2026-05-07 15:50 | 56.84154 | 16.37524 | 36087 ft | 444 kts | 200° |
| 2026-05-07 15:50 | 56.78274 | 16.34088 | 36104 ft | 444 kts | 200° |
| 2026-05-07 15:51 | 56.72392 | 16.30662 | 36104 ft | 444 kts | 200° |
| 2026-05-07 15:51 | 56.66551 | 16.27259 | 36104 ft | 444 kts | 200° |
| 2026-05-07 15:52 | 56.60684 | 16.23749 | 36104 ft | 444 kts | 200° |
| 2026-05-07 15:52 | 56.54821 | 16.20225 | 36100 ft | 444 kts | 200° |
| 2026-05-07 15:53 | 56.48965 | 16.16725 | 36108 ft | 443 kts | 200° |
| 2026-05-07 15:53 | 56.43103 | 16.13240 | 36107 ft | 443 kts | 200° |
| 2026-05-07 15:54 | 56.37280 | 16.09792 | 36103 ft | 443 kts | 200° |
| 2026-05-07 15:54 | 56.31424 | 16.06336 | 36094 ft | 443 kts | 200° |
| 2026-05-07 15:55 | 56.25571 | 16.02894 | 36105 ft | 442 kts | 200° |
| 2026-05-07 15:55 | 56.19721 | 15.99463 | 36113 ft | 442 kts | 200° |
| 2026-05-07 15:56 | 56.13917 | 15.96070 | 36105 ft | 442 kts | 200° |
| 2026-05-07 15:56 | 56.08075 | 15.92666 | 36111 ft | 441 kts | 200° |
| 2026-05-07 15:57 | 56.02239 | 15.89277 | 36118 ft | 441 kts | 199° |
| 2026-05-07 15:57 | 55.96412 | 15.85903 | 36115 ft | 440 kts | 199° |
| 2026-05-07 15:58 | 55.90625 | 15.82564 | 36115 ft | 440 kts | 199° |
| 2026-05-07 15:58 | 55.84803 | 15.79214 | 36117 ft | 439 kts | 199° |
| 2026-05-07 15:59 | 55.78987 | 15.75879 | 36104 ft | 439 kts | 199° |
| 2026-05-07 15:59 | 55.73212 | 15.72577 | 36110 ft | 439 kts | 199° |
| 2026-05-07 16:00 | 55.67400 | 15.69264 | 36114 ft | 439 kts | 199° |
| 2026-05-07 16:00 | 55.61592 | 15.65964 | 36110 ft | 438 kts | 199° |
| 2026-05-07 16:01 | 55.55782 | 15.62674 | 36113 ft | 438 kts | 199° |
| 2026-05-07 16:01 | 55.49973 | 15.59394 | 36110 ft | 438 kts | 199° |
| 2026-05-07 16:02 | 55.44207 | 15.56148 | 36113 ft | 438 kts | 199° |
| 2026-05-07 16:02 | 55.38398 | 15.52888 | 36112 ft | 438 kts | 199° |
| 2026-05-07 16:03 | 55.32587 | 15.49637 | 36113 ft | 438 kts | 199° |
| 2026-05-07 16:03 | 55.26781 | 15.46399 | 36112 ft | 438 kts | 199° |
| 2026-05-07 16:04 | 55.21011 | 15.43191 | 36110 ft | 438 kts | 199° |
| 2026-05-07 16:04 | 55.15203 | 15.39972 | 36112 ft | 438 kts | 199° |
| 2026-05-07 16:05 | 55.09399 | 15.36764 | 36114 ft | 438 kts | 199° |
| 2026-05-07 16:05 | 55.03591 | 15.33564 | 36114 ft | 438 kts | 199° |
| 2026-05-07 16:06 | 54.97822 | 15.30395 | 36112 ft | 438 kts | 199° |
| 2026-05-07 16:06 | 54.92016 | 15.27216 | 36112 ft | 438 kts | 199° |
| 2026-05-07 16:07 | 54.86206 | 15.24044 | 36114 ft | 438 kts | 199° |
| 2026-05-07 16:07 | 54.80394 | 15.20880 | 36115 ft | 438 kts | 198° |
| 2026-05-07 16:08 | 54.74620 | 15.17747 | 36107 ft | 438 kts | 198° |
| 2026-05-07 16:08 | 54.68804 | 15.14600 | 36107 ft | 438 kts | 198° |
| 2026-05-07 16:09 | 54.62989 | 15.11462 | 36112 ft | 438 kts | 198° |
| 2026-05-07 16:09 | 54.57178 | 15.08336 | 36103 ft | 438 kts | 198° |
| 2026-05-07 16:10 | 54.51406 | 15.05241 | 36106 ft | 437 kts | 198° |
| 2026-05-07 16:10 | 54.45601 | 15.02135 | 36105 ft | 437 kts | 198° |
| 2026-05-07 16:11 | 54.39847 | 14.98843 | 36100 ft | 436 kts | 204° |
| 2026-05-07 16:11 | 54.34337 | 14.94537 | 36103 ft | 435 kts | 205° |
| 2026-05-07 16:12 | 54.28858 | 14.90290 | 36099 ft | 435 kts | 204° |
| 2026-05-07 16:12 | 54.23321 | 14.86119 | 36102 ft | 435 kts | 204° |
| 2026-05-07 16:13 | 54.17774 | 14.81964 | 36104 ft | 435 kts | 204° |
| 2026-05-07 16:13 | 54.12223 | 14.77811 | 36098 ft | 436 kts | 204° |
| 2026-05-07 16:14 | 54.06705 | 14.73691 | 36097 ft | 436 kts | 204° |
| 2026-05-07 16:14 | 54.01139 | 14.69547 | 36098 ft | 437 kts | 204° |
| 2026-05-07 16:15 | 53.95563 | 14.65407 | 36093 ft | 438 kts | 204° |
| 2026-05-07 16:15 | 53.89978 | 14.61272 | 36098 ft | 438 kts | 204° |
| 2026-05-07 16:16 | 53.84424 | 14.57173 | 36092 ft | 439 kts | 204° |
| 2026-05-07 16:16 | 53.78823 | 14.53050 | 36096 ft | 439 kts | 204° |
| 2026-05-07 16:17 | 53.73219 | 14.48938 | 36097 ft | 439 kts | 204° |
| 2026-05-07 16:17 | 53.67648 | 14.44861 | 36097 ft | 440 kts | 204° |
| 2026-05-07 16:18 | 53.62033 | 14.40764 | 36082 ft | 440 kts | 204° |
| 2026-05-07 16:18 | 53.56418 | 14.36676 | 36080 ft | 440 kts | 204° |
| 2026-05-07 16:19 | 53.50748 | 14.32830 | 36073 ft | 440 kts | 196° |
| 2026-05-07 16:19 | 53.44758 | 14.31158 | 36083 ft | 440 kts | 187° |
| 2026-05-07 16:20 | 53.38676 | 14.29957 | 36074 ft | 440 kts | 187° |
| 2026-05-07 16:20 | 53.32592 | 14.28720 | 36073 ft | 440 kts | 188° |
| 2026-05-07 16:21 | 53.26514 | 14.27448 | 36070 ft | 441 kts | 188° |
| 2026-05-07 16:21 | 53.20469 | 14.26172 | 36071 ft | 441 kts | 188° |
| 2026-05-07 16:22 | 53.14381 | 14.24889 | 36068 ft | 441 kts | 188° |
| 2026-05-07 16:22 | 53.08289 | 14.23610 | 36063 ft | 441 kts | 188° |
| 2026-05-07 16:23 | 53.02196 | 14.22335 | 36065 ft | 442 kts | 188° |
| 2026-05-07 16:23 | 52.96097 | 14.21063 | 36065 ft | 442 kts | 188° |
| 2026-05-07 16:24 | 52.90035 | 14.19802 | 36064 ft | 442 kts | 188° |
| 2026-05-07 16:24 | 52.83935 | 14.18536 | 36064 ft | 442 kts | 188° |
| 2026-05-07 16:25 | 52.77831 | 14.17274 | 36060 ft | 442 kts | 188° |
| 2026-05-07 16:25 | 52.71731 | 14.16016 | 36062 ft | 442 kts | 188° |
| 2026-05-07 16:26 | 52.65679 | 14.14771 | 36061 ft | 441 kts | 188° |
| 2026-05-07 16:26 | 52.59592 | 14.13523 | 36051 ft | 440 kts | 188° |
| 2026-05-07 16:27 | 52.53518 | 14.12280 | 36055 ft | 439 kts | 188° |
| 2026-05-07 16:27 | 52.47465 | 14.11046 | 36055 ft | 438 kts | 188° |
| 2026-05-07 16:28 | 52.41476 | 14.09828 | 36054 ft | 436 kts | 188° |
| 2026-05-07 16:28 | 52.35459 | 14.08607 | 36057 ft | 435 kts | 188° |
| 2026-05-07 16:29 | 52.29452 | 14.07392 | 36054 ft | 435 kts | 188° |
| 2026-05-07 16:29 | 52.23454 | 14.06181 | 36057 ft | 434 kts | 188° |
| 2026-05-07 16:30 | 52.17494 | 14.04982 | 36056 ft | 434 kts | 188° |
| 2026-05-07 16:30 | 52.11493 | 14.03778 | 36062 ft | 435 kts | 188° |
| 2026-05-07 16:31 | 52.05475 | 14.02573 | 36050 ft | 436 kts | 188° |
| 2026-05-07 16:31 | 51.99447 | 14.01370 | 36053 ft | 437 kts | 188° |
| 2026-05-07 16:32 | 51.93411 | 14.00169 | 36050 ft | 437 kts | 188° |
| 2026-05-07 16:32 | 51.87410 | 13.98977 | 36046 ft | 438 kts | 188° |
| 2026-05-07 16:33 | 51.81380 | 13.97586 | 36045 ft | 438 kts | 191° |
| 2026-05-07 16:33 | 51.75389 | 13.95762 | 36047 ft | 438 kts | 191° |
| 2026-05-07 16:34 | 51.69427 | 13.94003 | 36049 ft | 439 kts | 191° |
| 2026-05-07 16:34 | 51.63417 | 13.92251 | 36043 ft | 439 kts | 191° |
| 2026-05-07 16:35 | 51.57405 | 13.90500 | 36041 ft | 439 kts | 191° |
| 2026-05-07 16:35 | 51.51390 | 13.88751 | 36041 ft | 439 kts | 191° |
| 2026-05-07 16:36 | 51.45375 | 13.87007 | 36038 ft | 439 kts | 191° |
| 2026-05-07 16:36 | 51.39401 | 13.85275 | 36038 ft | 439 kts | 191° |
| 2026-05-07 16:37 | 51.33387 | 13.83533 | 36035 ft | 439 kts | 191° |
| 2026-05-07 16:37 | 51.27372 | 13.81795 | 36047 ft | 439 kts | 191° |
| 2026-05-07 16:38 | 51.21358 | 13.80062 | 36043 ft | 439 kts | 191° |
| 2026-05-07 16:38 | 51.15383 | 13.78345 | 36050 ft | 439 kts | 191° |
| 2026-05-07 16:39 | 51.09363 | 13.76619 | 36049 ft | 440 kts | 191° |
| 2026-05-07 16:39 | 51.03337 | 13.74897 | 36046 ft | 440 kts | 191° |
| 2026-05-07 16:40 | 50.97310 | 13.73178 | 36039 ft | 440 kts | 191° |
| 2026-05-07 16:40 | 50.91322 | 13.71475 | 36038 ft | 440 kts | 191° |
| 2026-05-07 16:41 | 50.85332 | 13.69450 | 36028 ft | 440 kts | 195° |
| 2026-05-07 16:41 | 50.79403 | 13.67013 | 36021 ft | 441 kts | 195° |
| 2026-05-07 16:42 | 50.73469 | 13.64549 | 36010 ft | 441 kts | 195° |
| 2026-05-07 16:42 | 50.67561 | 13.62142 | 36016 ft | 442 kts | 195° |
| 2026-05-07 16:43 | 50.61605 | 13.59748 | 36007 ft | 442 kts | 195° |
| 2026-05-07 16:43 | 50.55635 | 13.57363 | 36008 ft | 443 kts | 195° |
| 2026-05-07 16:44 | 50.49655 | 13.54980 | 35996 ft | 443 kts | 195° |
| 2026-05-07 16:44 | 50.43713 | 13.52617 | 36005 ft | 444 kts | 195° |
| 2026-05-07 16:45 | 50.37718 | 13.50239 | 36006 ft | 445 kts | 195° |
| 2026-05-07 16:45 | 50.31715 | 13.47864 | 35998 ft | 445 kts | 195° |
| 2026-05-07 16:46 | 50.25710 | 13.45495 | 35994 ft | 445 kts | 195° |
| 2026-05-07 16:46 | 50.19739 | 13.43145 | 35994 ft | 445 kts | 195° |
| 2026-05-07 16:47 | 50.13726 | 13.40785 | 35993 ft | 445 kts | 195° |
| 2026-05-07 16:47 | 50.07716 | 13.38431 | 35987 ft | 445 kts | 195° |
| 2026-05-07 16:48 | 50.01705 | 13.36084 | 35995 ft | 445 kts | 195° |
| 2026-05-07 16:48 | 49.95735 | 13.33759 | 35990 ft | 445 kts | 195° |
| 2026-05-07 16:49 | 49.89731 | 13.31426 | 36008 ft | 445 kts | 195° |
| 2026-05-07 16:49 | 49.83726 | 13.29099 | 36009 ft | 445 kts | 195° |
| 2026-05-07 16:50 | 49.77765 | 13.26795 | 36024 ft | 444 kts | 195° |
| 2026-05-07 16:50 | 49.74748 | 13.25630 | 35543 ft | 451 kts | 195° |
| 2026-05-07 16:50 | 49.71709 | 13.24458 | 34987 ft | 449 kts | 195° |
| 2026-05-07 16:50 | 49.68675 | 13.23291 | 34344 ft | 450 kts | 195° |
| 2026-05-07 16:51 | 49.65634 | 13.22123 | 33591 ft | 451 kts | 195° |
| 2026-05-07 16:51 | 49.62582 | 13.20952 | 32832 ft | 452 kts | 195° |
| 2026-05-07 16:51 | 49.59527 | 13.19781 | 32096 ft | 453 kts | 195° |
| 2026-05-07 16:51 | 49.56467 | 13.18609 | 31352 ft | 454 kts | 196° |
| 2026-05-07 16:52 | 49.53402 | 13.17438 | 30594 ft | 455 kts | 196° |
| 2026-05-07 16:52 | 49.50375 | 13.16282 | 30028 ft | 452 kts | 196° |
| 2026-05-07 16:52 | 49.47330 | 13.15122 | 29351 ft | 449 kts | 196° |
| 2026-05-07 16:52 | 49.44315 | 13.13974 | 28770 ft | 444 kts | 196° |
| 2026-05-07 16:53 | 49.41338 | 13.12844 | 28239 ft | 437 kts | 196° |
| 2026-05-07 16:53 | 49.38403 | 13.11730 | 27701 ft | 432 kts | 196° |
| 2026-05-07 16:53 | 49.35500 | 13.10629 | 27159 ft | 428 kts | 196° |
| 2026-05-07 16:53 | 49.32629 | 13.09541 | 26617 ft | 423 kts | 196° |
| 2026-05-07 16:54 | 49.29781 | 13.08463 | 26094 ft | 419 kts | 196° |
| 2026-05-07 16:54 | 49.26998 | 13.07410 | 25579 ft | 416 kts | 196° |
| 2026-05-07 16:54 | 49.24201 | 13.06353 | 25066 ft | 412 kts | 197° |
| 2026-05-07 16:54 | 49.21426 | 13.05306 | 24539 ft | 409 kts | 197° |
| 2026-05-07 16:55 | 49.18671 | 13.04267 | 24038 ft | 406 kts | 196° |
| 2026-05-07 16:55 | 49.15934 | 13.03237 | 23519 ft | 404 kts | 196° |
| 2026-05-07 16:55 | 49.13215 | 13.02215 | 22934 ft | 401 kts | 196° |
| 2026-05-07 16:55 | 49.10517 | 13.01201 | 22389 ft | 398 kts | 197° |
| 2026-05-07 16:56 | 49.07844 | 13.00199 | 21888 ft | 394 kts | 197° |
| 2026-05-07 16:56 | 49.05232 | 12.99220 | 21381 ft | 391 kts | 197° |
| 2026-05-07 16:56 | 48.99996 | 12.97262 | 20375 ft | 384 kts | 197° |
| 2026-05-07 16:57 | 48.97411 | 12.96297 | 19893 ft | 381 kts | 197° |
| 2026-05-07 16:57 | 48.94846 | 12.95340 | 19415 ft | 379 kts | 197° |
| 2026-05-07 16:57 | 48.92294 | 12.94389 | 18924 ft | 376 kts | 197° |
| 2026-05-07 16:57 | 48.89759 | 12.93445 | 18454 ft | 374 kts | 197° |
| 2026-05-07 16:58 | 48.87229 | 12.92503 | 17895 ft | 374 kts | 197° |
| 2026-05-07 16:58 | 48.84711 | 12.91567 | 17386 ft | 371 kts | 197° |
| 2026-05-07 16:58 | 48.82245 | 12.90652 | 16891 ft | 368 kts | 197° |
| 2026-05-07 16:58 | 48.79766 | 12.89733 | 16402 ft | 366 kts | 197° |
| 2026-05-07 16:59 | 48.77307 | 12.88823 | 15937 ft | 363 kts | 197° |
| 2026-05-07 16:59 | 48.74866 | 12.87920 | 15479 ft | 360 kts | 197° |
| 2026-05-07 16:59 | 48.72439 | 12.87023 | 15018 ft | 357 kts | 197° |
| 2026-05-07 16:59 | 48.70035 | 12.86134 | 14561 ft | 355 kts | 197° |
| 2026-05-07 17:00 | 48.67644 | 12.85252 | 14104 ft | 353 kts | 197° |
| 2026-05-07 17:00 | 48.65264 | 12.84374 | 13627 ft | 351 kts | 197° |
| 2026-05-07 17:00 | 48.62901 | 12.83504 | 13126 ft | 349 kts | 197° |
| 2026-05-07 17:00 | 48.60555 | 12.82641 | 12650 ft | 346 kts | 197° |
| 2026-05-07 17:01 | 48.58255 | 12.81796 | 12183 ft | 343 kts | 197° |
| 2026-05-07 17:01 | 48.55947 | 12.80949 | 11745 ft | 340 kts | 197° |
| 2026-05-07 17:01 | 48.53658 | 12.80108 | 11295 ft | 338 kts | 197° |
| 2026-05-07 17:01 | 48.51380 | 12.79272 | 10872 ft | 335 kts | 197° |
| 2026-05-07 17:02 | 48.49154 | 12.78459 | 10734 ft | 323 kts | 197° |
| 2026-05-07 17:02 | 48.47000 | 12.77671 | 10596 ft | 313 kts | 197° |
| 2026-05-07 17:02 | 48.44917 | 12.76910 | 10453 ft | 303 kts | 197° |
| 2026-05-07 17:02 | 48.42900 | 12.76174 | 10328 ft | 294 kts | 197° |
| 2026-05-07 17:03 | 48.40965 | 12.75470 | 10206 ft | 285 kts | 197° |
| 2026-05-07 17:03 | 48.39008 | 12.75205 | 10061 ft | 284 kts | 175° |
| 2026-05-07 17:03 | 48.37100 | 12.75839 | 9942 ft | 279 kts | 170° |
| 2026-05-07 17:03 | 48.35220 | 12.76546 | 9636 ft | 278 kts | 169° |
| 2026-05-07 17:04 | 48.33351 | 12.77249 | 9348 ft | 276 kts | 169° |
| 2026-05-07 17:04 | 48.31487 | 12.77942 | 9073 ft | 275 kts | 170° |
| 2026-05-07 17:04 | 48.29636 | 12.78622 | 8794 ft | 273 kts | 170° |
| 2026-05-07 17:04 | 48.27791 | 12.79294 | 8522 ft | 272 kts | 169° |
| 2026-05-07 17:05 | 48.25958 | 12.79959 | 8245 ft | 270 kts | 169° |
| 2026-05-07 17:05 | 48.24159 | 12.80610 | 7985 ft | 269 kts | 169° |
| 2026-05-07 17:05 | 48.22342 | 12.81264 | 7763 ft | 266 kts | 169° |
| 2026-05-07 17:05 | 48.20566 | 12.81904 | 7645 ft | 259 kts | 169° |
| 2026-05-07 17:06 | 48.18839 | 12.82526 | 7529 ft | 252 kts | 169° |
| 2026-05-07 17:06 | 48.17159 | 12.83130 | 7411 ft | 245 kts | 169° |
| 2026-05-07 17:06 | 48.15513 | 12.83723 | 7204 ft | 243 kts | 169° |
| 2026-05-07 17:06 | 48.13878 | 12.84318 | 6980 ft | 241 kts | 169° |
| 2026-05-07 17:07 | 48.12251 | 12.84912 | 6750 ft | 240 kts | 169° |
| 2026-05-07 17:07 | 48.10657 | 12.85493 | 6513 ft | 239 kts | 169° |
| 2026-05-07 17:07 | 48.09046 | 12.86080 | 6279 ft | 238 kts | 169° |
| 2026-05-07 17:07 | 48.07440 | 12.86665 | 6017 ft | 238 kts | 168° |
| 2026-05-07 17:08 | 48.05846 | 12.87246 | 5874 ft | 233 kts | 168° |
| 2026-05-07 17:08 | 48.04289 | 12.87812 | 5747 ft | 227 kts | 168° |
| 2026-05-07 17:08 | 48.02783 | 12.88360 | 5570 ft | 220 kts | 168° |
| 2026-05-07 17:08 | 48.01310 | 12.88895 | 5339 ft | 215 kts | 168° |
| 2026-05-07 17:09 | 47.99872 | 12.89359 | 5119 ft | 208 kts | 176° |
| 2026-05-07 17:09 | 47.98459 | 12.89412 | 4932 ft | 200 kts | 182° |
| 2026-05-07 17:09 | 47.97095 | 12.89430 | 4719 ft | 197 kts | 182° |
| 2026-05-07 17:09 | 47.95763 | 12.89824 | 4502 ft | 197 kts | 154° |
| 2026-05-07 17:10 | 47.94578 | 12.90746 | 4384 ft | 187 kts | 158° |
| 2026-05-07 17:10 | 47.93358 | 12.91522 | 4213 ft | 194 kts | 159° |
| 2026-05-07 17:10 | 47.92115 | 12.92300 | 3958 ft | 193 kts | 159° |
| 2026-05-07 17:10 | 47.90883 | 12.93078 | 3703 ft | 191 kts | 159° |
| 2026-05-07 17:11 | 47.89662 | 12.93851 | 3434 ft | 189 kts | 160° |
| 2026-05-07 17:11 | 47.88467 | 12.94609 | 3188 ft | 184 kts | 160° |
| 2026-05-07 17:11 | 47.87331 | 12.95331 | 2960 ft | 175 kts | 160° |
| 2026-05-07 17:11 | 47.86240 | 12.96020 | 2722 ft | 168 kts | 160° |
| 2026-05-07 17:12 | 47.85175 | 12.96695 | 2534 ft | 164 kts | 160° |
| 2026-05-07 17:12 | 47.84141 | 12.97346 | 2256 ft | 159 kts | 159° |
| 2026-05-07 17:12 | 47.83125 | 12.97964 | 2047 ft | 156 kts | 157° |
| 2026-05-07 17:12 | 47.82143 | 12.98592 | 1843 ft | 152 kts | 154° |
| 2026-05-07 17:13 | 47.81178 | 12.99218 | 1647 ft | 151 kts | 155° |
| 2026-05-07 17:13 | 47.80223 | 12.99828 | 1456 ft | 147 kts | 156° |
| 2026-05-07 17:13 | 47.79371 | 13.00368 | 1421 ft | 107 kts | 157° |
| 2026-05-07 17:13 | 47.78886 | 13.00676 | 1418 ft | 41 kts | 156° |
| 2026-05-07 17:14 | 47.78635 | 13.00834 | 1419 ft | 27 kts | 158° |
| 2026-05-07 17:14 | 47.78549 | 13.00785 | 1419 ft | 15 kts | 246° |
| 2026-05-07 17:14 | 47.78540 | 13.00646 | 1419 ft | 14 kts | 302° |
| 2026-05-07 17:14 | 47.78623 | 13.00577 | 1419 ft | 14 kts | 336° |
| 2026-05-07 17:15 | 47.78707 | 13.00523 | 1419 ft | 13 kts | 337° |
| 2026-05-07 17:15 | 47.78789 | 13.00471 | 1419 ft | 13 kts | 337° |
| 2026-05-07 17:15 | 47.78869 | 13.00420 | 1419 ft | 12 kts | 336° |
| 2026-05-07 17:15 | 47.78943 | 13.00362 | 1420 ft | 12 kts | 307° |
| 2026-05-07 17:16 | 47.78956 | 13.00242 | 1419 ft | 12 kts | 273° |
| 2026-05-07 17:16 | 47.78983 | 13.00140 | 1419 ft | 11 kts | 331° |
| 2026-05-07 17:16 | 47.79055 | 13.00094 | 1419 ft | 10 kts | 337° |
| 2026-05-07 17:16 | 47.79079 | 13.00038 | 1419 ft | 6 kts | 283° |
| 2026-05-07 17:17 | 47.79088 | 12.99979 | 1419 ft | 3 kts | 282° |
| 2026-05-07 17:17 | 47.79091 | 12.99960 | 1419 ft | 0 kts | 282° |